createdAt,value
2022-09-21T00:01:33.066Z,99870.34
2022-09-21T00:04:04.222Z,99877.13
2022-09-21T00:06:35.100Z,99870.28
2022-09-21T00:09:08.325Z,99879.44
2022-09-21T00:11:38.268Z,99868.63
2022-09-21T00:14:14.455Z,99873.50
2022-09-21T00:16:43.846Z,99880.97
2022-09-21T00:19:12.209Z,99882.00
2022-09-21T00:21:40.861Z,99889.72
2022-09-21T00:24:09.533Z,99877.84
2022-09-21T00:26:37.293Z,99883.81
2022-09-21T00:29:06.149Z,99883.28
2022-09-21T00:31:34.987Z,99887.03
2022-09-21T00:34:03.814Z,99891.63
2022-09-21T00:36:31.614Z,99892.59
2022-09-21T00:39:02.203Z,99886.91
2022-09-21T00:41:33.710Z,99887.59
2022-09-21T00:44:22.205Z,99880.19
2022-09-21T00:46:53.510Z,99880.97
2022-09-21T00:49:23.319Z,99880.34
2022-09-21T00:51:53.359Z,99880.56
2022-09-21T00:54:35.591Z,99887.19
2022-09-21T00:57:04.736Z,99880.75
2022-09-21T00:59:35.963Z,99881.03
2022-09-21T01:02:04.518Z,99897.28
2022-09-21T01:04:33.751Z,99894.31
2022-09-21T01:07:12.450Z,99899.16
2022-09-21T01:09:45.118Z,99890.50
2022-09-21T01:12:45.519Z,99900.44
2022-09-21T01:15:51.951Z,99895.72
2022-09-21T01:18:59.855Z,99893.34
2022-09-21T01:21:35.239Z,99894.47
2022-09-21T01:25:13.586Z,99890.38
2022-09-21T01:28:16.183Z,99889.28
2022-09-21T01:30:49.046Z,99886.28
2022-09-21T01:33:53.038Z,99887.22
2022-09-21T01:36:27.972Z,99889.19
2022-09-21T01:39:08.890Z,99881.53
2022-09-21T01:41:41.315Z,99882.97
2022-09-21T01:44:21.270Z,99890.09
2022-09-21T01:46:50.131Z,99895.41
2022-09-21T01:49:28.150Z,99886.91
2022-09-21T01:52:30.111Z,99892.88
2022-09-21T01:55:35.268Z,99895.72
2022-09-21T01:58:33.363Z,99895.22
2022-09-21T02:01:01.883Z,99890.28
2022-09-21T02:04:04.791Z,99887.66
2022-09-21T02:06:32.879Z,99890.19
2022-09-21T02:09:00.628Z,99896.59
2022-09-21T02:11:28.246Z,99895.56
2022-09-21T02:13:56.509Z,99890.50
2022-09-21T02:16:50.566Z,99895.53
2022-09-21T02:19:31.866Z,99893.19
2022-09-21T02:22:33.417Z,99901.66
2022-09-21T02:25:47.521Z,99899.72
2022-09-21T02:28:21.038Z,99906.13
2022-09-21T02:31:06.079Z,99909.13
2022-09-21T02:34:26.078Z,99907.06
2022-09-21T02:37:36.874Z,99910.53
2022-09-21T02:40:34.372Z,99912.81
2022-09-21T02:43:21.307Z,99905.31
2022-09-21T02:45:59.042Z,99912.19
2022-09-21T02:48:51.934Z,99923.66
2022-09-21T02:51:36.180Z,99924.94
2022-09-21T02:54:09.074Z,99916.25
2022-09-21T02:56:38.185Z,99919.06
2022-09-21T02:59:08.322Z,99932.53
2022-09-21T03:01:36.555Z,99928.03
2022-09-21T03:04:06.069Z,99928.50
2022-09-21T03:06:34.258Z,99923.97
2022-09-21T03:09:02.282Z,99923.41
2022-09-21T03:11:30.209Z,99938.31
2022-09-21T03:13:57.914Z,99943.94
2022-09-21T03:16:25.639Z,99941.72
2022-09-21T03:18:53.343Z,99933.97
2022-09-21T03:21:22.171Z,99941.63
2022-09-21T03:23:49.818Z,99935.69
2022-09-21T03:26:17.509Z,99940.88
2022-09-21T03:28:46.112Z,99937.38
2022-09-21T03:31:13.762Z,99936.72
2022-09-21T03:33:41.392Z,99941.06
2022-09-21T03:36:11.710Z,99941.50
2022-09-21T03:38:39.905Z,99944.75
2022-09-21T03:41:07.869Z,99937.38
2022-09-21T03:43:35.583Z,99939.97
2022-09-21T03:46:03.237Z,99936.72
2022-09-21T03:48:31.240Z,99944.81
2022-09-21T03:50:59.114Z,99951.69
2022-09-21T03:53:26.737Z,99941.66
2022-09-21T03:55:54.370Z,99943.31
2022-09-21T03:58:22.846Z,99949.09
2022-09-21T04:00:50.567Z,99960.44
2022-09-21T04:03:18.187Z,99955.53
2022-09-21T04:05:45.785Z,99960.88
2022-09-21T04:08:15.262Z,99961.72
2022-09-21T04:10:43.421Z,99961.28
2022-09-21T04:13:11.517Z,99960.56
2022-09-21T04:15:39.313Z,99967.53
2022-09-21T04:18:07.801Z,99971.88
2022-09-21T04:20:37.297Z,99970.91
2022-09-21T04:23:04.957Z,99964.03
2022-09-21T04:25:34.605Z,99967.94
2022-09-21T04:28:03.511Z,99969.75
2022-09-21T04:30:37.753Z,99975.47
2022-09-21T04:33:06.181Z,99973.59
2022-09-21T04:35:34.670Z,99973.88
2022-09-21T04:38:02.546Z,99974.75
2022-09-21T04:40:32.468Z,99975.09
2022-09-21T04:43:00.194Z,99972.06
2022-09-21T04:45:30.000Z,99977.22
2022-09-21T04:47:59.473Z,99975.25
2022-09-21T04:50:27.173Z,99980.34
2022-09-21T04:52:54.767Z,99987.34
2022-09-21T04:55:22.784Z,99985.31
2022-09-21T04:57:51.259Z,99987.19
2022-09-21T05:00:19.794Z,99991.94
2022-09-21T05:02:47.453Z,99997.75
2022-09-21T05:05:15.263Z,99993.41
2022-09-21T05:07:42.909Z,100000.31
2022-09-21T05:10:12.107Z,100001.22
2022-09-21T05:12:41.187Z,99998.13
2022-09-21T05:15:13.535Z,100003.88
2022-09-21T05:17:43.080Z,99991.75
2022-09-21T05:20:12.654Z,99995.16
2022-09-21T05:22:40.300Z,100005.69
2022-09-21T05:25:09.546Z,99999.88
2022-09-21T05:27:37.373Z,99999.22
2022-09-21T05:30:08.446Z,99994.66
2022-09-21T05:32:58.148Z,99999.88
2022-09-21T05:35:36.383Z,100004.81
2022-09-21T05:38:20.293Z,100009.00
2022-09-21T05:40:53.254Z,100006.31
2022-09-21T05:43:22.549Z,100006.13
2022-09-21T05:46:34.278Z,100010.28
2022-09-21T05:49:33.576Z,100013.69
2022-09-21T05:52:59.364Z,100020.69
2022-09-21T05:55:56.792Z,100026.38
2022-09-21T05:58:59.563Z,100018.13
2022-09-21T06:01:58.988Z,100022.66
2022-09-21T06:04:28.061Z,100022.38
2022-09-21T06:06:55.731Z,100028.69
2022-09-21T06:09:25.985Z,100033.97
2022-09-21T06:11:55.471Z,100028.53
2022-09-21T06:14:25.758Z,100035.31
2022-09-21T06:16:56.286Z,100029.22
2022-09-21T06:19:24.874Z,100039.88
2022-09-21T06:21:52.517Z,100037.28
2022-09-21T06:24:22.950Z,100035.91
2022-09-21T06:26:51.823Z,100036.97
2022-09-21T06:29:23.691Z,100043.97
2022-09-21T06:31:52.452Z,100045.31
2022-09-21T06:34:20.149Z,100042.66
2022-09-21T06:36:48.725Z,100048.97
2022-09-21T06:39:17.238Z,100047.69
2022-09-21T06:41:45.842Z,100053.06
2022-09-21T06:44:13.489Z,100051.28
2022-09-21T06:46:42.978Z,100050.19
2022-09-21T06:49:12.494Z,100045.41
2022-09-21T06:51:40.164Z,100052.50
2022-09-21T06:54:08.899Z,100058.09
2022-09-21T06:56:37.599Z,100064.25
2022-09-21T06:59:08.446Z,100066.72
2022-09-21T07:01:36.586Z,100059.41
2022-09-21T07:04:07.099Z,100062.47
2022-09-21T07:06:34.903Z,100072.69
2022-09-21T07:11:52.053Z,100076.59
2022-09-21T07:14:22.637Z,100072.06
2022-09-21T07:16:53.693Z,100069.66
2022-09-21T07:19:21.377Z,100066.66
2022-09-21T07:21:49.026Z,100067.41
2022-09-21T07:24:16.797Z,100067.31
2022-09-21T07:26:44.598Z,100070.34
2022-09-21T07:29:16.048Z,100070.53
2022-09-21T07:31:46.517Z,100069.13
2022-09-21T07:34:14.437Z,100071.97
2022-09-21T07:36:42.348Z,100077.06
2022-09-21T07:39:10.934Z,100066.66
2022-09-21T07:41:39.161Z,100070.75
2022-09-21T07:44:06.895Z,100077.06
2022-09-21T07:46:37.208Z,100072.94
2022-09-21T07:49:06.204Z,100083.63
2022-09-21T07:51:33.822Z,100082.44
2022-09-21T07:54:01.466Z,100075.88
2022-09-21T07:56:29.904Z,100085.00
2022-09-21T07:59:06.618Z,100076.88
2022-09-21T08:01:42.705Z,100074.44
2022-09-21T08:04:12.417Z,100071.97
2022-09-21T08:06:42.048Z,100076.94
2022-09-21T08:09:16.774Z,100075.63
2022-09-21T08:11:47.901Z,100079.19
2022-09-21T08:14:23.780Z,100082.28
2022-09-21T08:16:55.775Z,100076.34
2022-09-21T08:19:26.041Z,100077.09
2022-09-21T08:21:57.938Z,100080.72
2022-09-21T08:24:27.012Z,100080.63
2022-09-21T08:26:57.939Z,100074.63
2022-09-21T08:29:29.928Z,100085.78
2022-09-21T08:31:59.458Z,100083.34
2022-09-21T08:34:28.128Z,100085.53
2022-09-21T08:36:56.047Z,100083.69
2022-09-21T08:39:25.657Z,100090.22
2022-09-21T08:42:39.793Z,100086.72
2022-09-21T08:45:17.841Z,100095.81
2022-09-21T08:47:51.061Z,100095.88
2022-09-21T08:50:35.904Z,100097.03
2022-09-21T08:53:15.657Z,100088.97
2022-09-21T08:55:43.537Z,100084.44
2022-09-21T08:58:26.841Z,100087.66
2022-09-21T09:01:22.678Z,100091.69
2022-09-21T09:04:43.084Z,100089.28
2022-09-21T09:07:57.297Z,100086.31
2022-09-21T09:10:54.921Z,100088.84
2022-09-21T09:14:15.718Z,100080.94
2022-09-21T09:17:26.824Z,100090.94
2022-09-21T09:20:31.542Z,100085.91
2022-09-21T09:23:23.198Z,100088.09
2022-09-21T09:25:56.758Z,100081.81
2022-09-21T09:28:36.027Z,100088.94
2022-09-21T09:31:32.374Z,100084.38
2022-09-21T09:34:33.014Z,100077.22
2022-09-21T09:37:17.667Z,100071.13
2022-09-21T09:39:56.196Z,100086.78
2022-09-21T09:43:04.864Z,100072.47
2022-09-21T09:46:29.795Z,100074.91
2022-09-21T09:49:24.714Z,100072.38
2022-09-21T09:51:52.571Z,100061.66
2022-09-21T09:54:26.726Z,100072.47
2022-09-21T09:56:55.247Z,100073.75
2022-09-21T09:59:54.631Z,100074.53
2022-09-21T10:02:27.250Z,100072.22
2022-09-21T10:05:09.007Z,100068.53
2022-09-21T10:07:40.826Z,100067.81
2022-09-21T10:10:33.763Z,100068.53
2022-09-21T10:13:34.400Z,100065.31
2022-09-21T10:16:12.234Z,100059.03
2022-09-21T10:18:51.613Z,100054.88
2022-09-21T10:21:33.724Z,100061.66
2022-09-21T10:24:24.817Z,100064.13
2022-09-21T10:27:12.504Z,100059.66
2022-09-21T10:29:49.770Z,100056.06
2022-09-21T10:32:23.679Z,100051.25
2022-09-21T10:35:20.954Z,100048.50
2022-09-21T10:37:54.534Z,100044.66
2022-09-21T10:40:22.282Z,100047.91
2022-09-21T10:42:56.163Z,100046.94
2022-09-21T10:45:37.257Z,100045.63
2022-09-21T10:48:18.154Z,100040.75
2022-09-21T10:50:52.110Z,100039.91
2022-09-21T10:53:34.413Z,100036.41
2022-09-21T10:56:17.576Z,100037.41
2022-09-21T10:59:30.754Z,100042.25
2022-09-21T11:02:01.660Z,100045.00
2022-09-21T11:04:46.568Z,100041.91
2022-09-21T11:07:35.657Z,100040.47
2022-09-21T11:10:21.973Z,100033.22
2022-09-21T11:13:25.889Z,100029.94
2022-09-21T11:16:26.510Z,100030.44
2022-09-21T11:19:32.514Z,100021.28
2022-09-21T11:22:40.954Z,100026.56
2022-09-21T11:25:50.686Z,100021.84
2022-09-21T11:29:09.164Z,100028.75
2022-09-21T11:32:28.248Z,100021.13
2022-09-21T11:35:38.937Z,100018.78
2022-09-21T11:38:39.870Z,100016.63
2022-09-21T11:41:46.267Z,100018.97
2022-09-21T11:44:58.439Z,100011.44
2022-09-21T11:47:58.689Z,100003.38
2022-09-21T11:50:45.262Z,100004.31
2022-09-21T11:53:52.170Z,100007.16
2022-09-21T11:56:55.335Z,100003.47
2022-09-21T11:59:40.818Z,100000.41
2022-09-21T12:02:52.443Z,100003.22
2022-09-21T12:06:06.711Z,100004.41
2022-09-21T12:09:23.781Z,99991.25
2022-09-21T12:12:13.152Z,99987.25
2022-09-21T12:15:18.784Z,99993.47
2022-09-21T12:18:29.398Z,99994.81
2022-09-21T12:21:32.008Z,99989.28
2022-09-21T12:24:22.285Z,99990.88
2022-09-21T12:27:01.512Z,99991.16
2022-09-21T12:29:49.902Z,99992.72
2022-09-21T12:33:25.598Z,99985.84
2022-09-21T12:36:17.652Z,99985.44
2022-09-21T12:38:49.959Z,99983.47
2022-09-21T12:41:40.021Z,99981.16
2022-09-21T12:44:52.227Z,99984.50
2022-09-21T12:47:58.324Z,99994.19
2022-09-21T12:50:52.349Z,99984.09
2022-09-21T12:53:27.411Z,99982.00
2022-09-21T12:56:58.743Z,99981.28
2022-09-21T12:59:43.709Z,99975.63
2022-09-21T13:02:33.449Z,99976.69
2022-09-21T13:05:27.739Z,99964.28
2022-09-21T13:08:26.526Z,99973.91
2022-09-21T13:11:08.176Z,99973.56
2022-09-21T13:13:53.016Z,99969.50
2022-09-21T13:16:39.065Z,99968.22
2022-09-21T13:19:30.221Z,99976.31
2022-09-21T13:22:33.805Z,99972.75
2022-09-21T13:25:25.949Z,99962.75
2022-09-21T13:28:14.396Z,99965.84
2022-09-21T13:30:44.393Z,99960.59
2022-09-21T13:33:20.501Z,99965.41
2022-09-21T13:35:53.041Z,99963.25
2022-09-21T13:38:41.486Z,99960.84
2022-09-21T13:41:18.708Z,99954.34
2022-09-21T13:44:01.320Z,99967.25
2022-09-21T13:46:35.791Z,99960.84
2022-09-21T13:49:14.035Z,99965.53
2022-09-21T13:52:15.762Z,99960.28
2022-09-21T13:54:56.781Z,99960.72
2022-09-21T13:57:49.158Z,99956.63
2022-09-21T14:00:20.219Z,99959.72
2022-09-21T14:02:51.620Z,99958.53
2022-09-21T14:05:35.099Z,99979.47
2022-09-21T14:08:23.688Z,99978.41
2022-09-21T14:11:37.792Z,99978.81
2022-09-21T14:14:28.379Z,99976.72
2022-09-21T14:17:02.314Z,99962.94
2022-09-21T14:19:32.088Z,99960.81
2022-09-21T14:22:06.426Z,99963.78
2022-09-21T14:24:39.163Z,99951.75
2022-09-21T14:27:45.439Z,99959.25
2022-09-21T14:30:25.689Z,99957.56
2022-09-21T14:33:54.458Z,99958.03
2022-09-21T14:36:51.015Z,99959.81
2022-09-21T14:39:37.795Z,99963.06
2022-09-21T14:42:19.714Z,99966.78
2022-09-21T14:44:51.993Z,99959.50
2022-09-21T14:47:25.549Z,99962.34
2022-09-21T14:50:19.295Z,99952.75
2022-09-21T14:53:35.759Z,99953.09
2022-09-21T14:56:39.107Z,99955.72
2022-09-21T14:59:25.728Z,99949.41
2022-09-21T15:02:35.654Z,99950.69
2022-09-21T15:05:19.202Z,99942.97
2022-09-21T15:08:41.621Z,99945.66
2022-09-21T15:11:30.511Z,99953.84
2022-09-21T15:14:47.044Z,99953.72
2022-09-21T15:17:30.156Z,99959.41
2022-09-21T15:20:23.669Z,99967.66
2022-09-21T15:22:59.332Z,99964.66
2022-09-21T15:25:32.857Z,99962.31
2022-09-21T15:28:04.268Z,99966.06
2022-09-21T15:30:33.380Z,99966.09
2022-09-21T15:33:03.922Z,99970.19
2022-09-21T15:35:34.372Z,99970.03
2022-09-21T15:38:02.923Z,99966.59
2022-09-21T15:40:47.637Z,99961.22
2022-09-21T15:43:21.534Z,99954.56
2022-09-21T15:45:54.134Z,99957.63
2022-09-21T15:48:36.663Z,99958.88
2022-09-21T15:51:33.795Z,99959.94
2022-09-21T15:55:07.305Z,99963.63
2022-09-21T15:57:43.088Z,99961.03
2022-09-21T16:00:20.789Z,99958.00
2022-09-21T16:03:26.116Z,99969.56
2022-09-21T16:05:57.132Z,99968.47
2022-09-21T16:08:36.665Z,99966.41
2022-09-21T16:11:27.451Z,99972.44
2022-09-21T16:14:30.845Z,99976.69
2022-09-21T16:17:17.521Z,99965.78
2022-09-21T16:20:19.956Z,99966.97
2022-09-21T16:22:54.984Z,99965.16
2022-09-21T16:25:38.402Z,99957.38
2022-09-21T16:28:18.766Z,99962.69
2022-09-21T16:30:53.358Z,99966.09
2022-09-21T16:33:49.139Z,99964.31
2022-09-21T16:36:22.291Z,99970.25
2022-09-21T16:38:52.958Z,99972.19
2022-09-21T16:41:36.458Z,99971.41
2022-09-21T16:44:05.375Z,99978.00
2022-09-21T16:46:35.522Z,99975.94
2022-09-21T16:49:05.003Z,99979.09
2022-09-21T16:51:32.720Z,99973.16
2022-09-21T16:54:03.121Z,99978.44
2022-09-21T16:56:32.712Z,99980.16
2022-09-21T16:59:03.886Z,99980.81
2022-09-21T17:01:31.737Z,99979.75
2022-09-21T17:04:01.681Z,99986.50
2022-09-21T17:06:31.063Z,99988.53
2022-09-21T17:09:01.012Z,99995.38
2022-09-21T17:11:29.909Z,99995.31
2022-09-21T17:14:01.439Z,100002.53
2022-09-21T17:16:30.134Z,99997.94
2022-09-21T17:18:59.600Z,100006.47
2022-09-21T17:21:29.086Z,100002.47
2022-09-21T17:23:58.688Z,100010.00
2022-09-21T17:26:28.230Z,100009.84
2022-09-21T17:28:56.805Z,100013.47
2022-09-21T17:31:28.279Z,100023.38
2022-09-21T17:33:57.321Z,100017.13
2022-09-21T17:36:25.837Z,100018.22
2022-09-21T17:38:57.122Z,100014.38
2022-09-21T17:41:46.096Z,100020.34
2022-09-21T17:44:46.192Z,100027.72
2022-09-21T17:47:28.355Z,100021.53
2022-09-21T17:50:28.001Z,100029.88
2022-09-21T17:53:17.425Z,100033.94
2022-09-21T17:55:58.182Z,100040.09
2022-09-21T17:58:48.663Z,100045.97
2022-09-21T18:01:40.029Z,100042.38
2022-09-21T18:04:11.175Z,100035.66
2022-09-21T18:06:39.667Z,100044.50
2022-09-21T18:09:07.964Z,100044.44
2022-09-21T18:12:39.625Z,100051.53
2022-09-21T18:15:34.743Z,100053.84
2022-09-21T18:18:22.597Z,100062.03
2022-09-21T18:21:05.547Z,100046.16
2022-09-21T18:23:50.192Z,100065.06
2022-09-21T18:26:20.702Z,100056.16
2022-09-21T18:28:57.177Z,100063.34
2022-09-21T18:32:03.478Z,100063.84
2022-09-21T18:35:14.148Z,100070.88
2022-09-21T18:38:36.657Z,100072.28
2022-09-21T18:42:09.284Z,100065.94
2022-09-21T18:44:51.002Z,100071.59
2022-09-21T18:47:32.864Z,100071.91
2022-09-21T18:50:33.583Z,100064.56
2022-09-21T18:53:56.214Z,100070.91
2022-09-21T18:56:35.250Z,100081.06
2022-09-21T18:59:07.272Z,100084.66
2022-09-21T19:01:35.618Z,100075.38
2022-09-21T19:04:04.305Z,100075.81
2022-09-21T19:07:02.707Z,100082.56
2022-09-21T19:10:15.624Z,100080.22
2022-09-21T19:13:09.512Z,100080.69
2022-09-21T19:16:32.076Z,100081.09
2022-09-21T19:20:04.411Z,100081.06
2022-09-21T19:23:23.209Z,100084.38
2022-09-21T19:26:50.170Z,100088.88
2022-09-21T19:30:06.296Z,100072.47
2022-09-21T19:32:53.277Z,100079.22
2022-09-21T19:35:28.535Z,100073.78
2022-09-21T19:38:02.976Z,100068.81
2022-09-21T19:40:38.870Z,100069.31
2022-09-21T19:43:41.740Z,100076.19
2022-09-21T19:46:39.169Z,100064.66
2022-09-21T19:49:19.879Z,100067.16
2022-09-21T19:51:56.025Z,100069.69
2022-09-21T19:54:55.292Z,100063.38
2022-09-21T19:57:43.871Z,100060.34
2022-09-21T20:00:18.053Z,100057.22
2022-09-21T20:03:11.202Z,100060.94
2022-09-21T20:06:19.785Z,100071.25
2022-09-21T20:09:24.867Z,100061.38
2022-09-21T20:12:24.377Z,100071.56
2022-09-21T20:15:15.997Z,100070.34
2022-09-21T20:18:39.532Z,100076.00
2022-09-21T20:21:19.264Z,100076.09
2022-09-21T20:23:52.013Z,100077.47
2022-09-21T20:26:28.817Z,100076.41
2022-09-21T20:28:58.246Z,100084.63
2022-09-21T20:31:27.278Z,100080.75
2022-09-21T20:33:55.860Z,100088.94
2022-09-21T20:36:24.533Z,100086.03
2022-09-21T20:38:52.234Z,100086.59
2022-09-21T20:41:22.353Z,100086.28
2022-09-21T20:43:50.947Z,100080.13
2022-09-21T20:46:18.874Z,100089.41
2022-09-21T20:48:47.401Z,100086.69
2022-09-21T20:51:15.050Z,100082.78
2022-09-21T20:53:45.425Z,100096.22
2022-09-21T20:56:14.015Z,100074.75
2022-09-21T20:58:41.661Z,100086.91
2022-09-21T21:01:10.864Z,100084.41
2022-09-21T21:03:40.421Z,100092.97
2022-09-21T21:06:18.785Z,100096.44
2022-09-21T21:08:47.468Z,100099.03
2022-09-21T21:11:15.107Z,100091.47
2022-09-21T21:13:44.766Z,100099.06
2022-09-21T21:16:12.728Z,100092.13
2022-09-21T21:18:41.689Z,100095.25
2022-09-21T21:21:09.894Z,100092.34
2022-09-21T21:23:56.273Z,100084.19
2022-09-21T21:26:38.481Z,100083.50
2022-09-21T21:29:13.455Z,100084.31
2022-09-21T21:31:41.604Z,100069.41
2022-09-21T21:34:10.307Z,100075.84
2022-09-21T21:36:40.356Z,100070.50
2022-09-21T21:39:10.854Z,100074.94
2022-09-21T21:41:43.255Z,100078.41
2022-09-21T21:44:13.001Z,100076.50
2022-09-21T21:46:41.866Z,100071.22
2022-09-21T21:49:11.402Z,100057.72
2022-09-21T21:51:40.875Z,100073.78
2022-09-21T21:54:09.493Z,100065.75
2022-09-21T21:56:38.101Z,100072.19
2022-09-21T21:59:06.849Z,100075.31
2022-09-21T22:01:35.509Z,100068.38
2022-09-21T22:04:04.178Z,100069.81
2022-09-21T22:06:35.814Z,100078.53
2022-09-21T22:09:07.893Z,100070.72
2022-09-21T22:11:36.804Z,100076.31
2022-09-21T22:14:08.350Z,100078.53
2022-09-21T22:16:40.561Z,100076.59
2022-09-21T22:19:09.625Z,100079.03
2022-09-21T22:21:48.174Z,100069.75
2022-09-21T22:24:18.205Z,100075.34
2022-09-21T22:26:48.577Z,100071.50
2022-09-21T22:29:17.488Z,100064.63
2022-09-21T22:31:49.737Z,100081.38
2022-09-21T22:34:20.730Z,100072.78
2022-09-21T22:36:50.819Z,100072.41
2022-09-21T22:39:20.382Z,100071.06
2022-09-21T22:41:48.093Z,100071.50
2022-09-21T22:44:18.749Z,100065.59
2022-09-21T22:46:49.980Z,100058.66
2022-09-21T22:49:17.804Z,100062.78
2022-09-21T22:51:45.478Z,100055.59
2022-09-21T22:54:13.081Z,100060.53
2022-09-21T22:56:40.687Z,100061.47
2022-09-21T22:59:09.634Z,100061.41
2022-09-21T23:01:40.364Z,100052.59
2022-09-21T23:04:13.881Z,100050.56
2022-09-21T23:06:45.382Z,100056.28
2022-09-21T23:09:19.872Z,100053.69
2022-09-21T23:11:53.718Z,100055.28
2022-09-21T23:14:23.562Z,100054.38
2022-09-21T23:16:53.042Z,100060.25
2022-09-21T23:19:20.768Z,100064.94
2022-09-21T23:21:51.138Z,100053.00
2022-09-21T23:24:20.202Z,100053.78
2022-09-21T23:26:51.742Z,100058.94
2022-09-21T23:29:20.483Z,100064.69
2022-09-21T23:31:49.061Z,100062.38
2022-09-21T23:34:17.522Z,100060.00
2022-09-21T23:36:46.272Z,100068.06
2022-09-21T23:39:16.018Z,100071.50
2022-09-21T23:41:44.589Z,100066.09
2022-09-21T23:44:12.364Z,100066.78
2022-09-21T23:46:41.851Z,100067.34
2022-09-21T23:49:10.698Z,100066.53
2022-09-21T23:51:39.828Z,100057.97
2022-09-21T23:54:08.211Z,100065.97
2022-09-21T23:56:36.293Z,100070.31
2022-09-21T23:59:04.090Z,100063.69
